Terminal Aerodrome Forecast
Issued by NWS Houston/Galveston, TX

Home | Current Version | Previous Version | Text Only | Print | Product List | Glossary On
Versions: 1 2 3 4 5 6 7 8 9 10 11 12 13 14 15 16 17 18 19 20 21 22 23 24 25 26 27 28 29
000
FTUS44 KHGX 282323
TAFGLS
TAF
KGLS 282323Z 2900/2924 03012KT P6SM -RA VCSH SCT010 BKN035
      TEMPO 2900/2902 VRB20KT 4SM SHRA BKN025
     FM290200 06009KT P6SM SCT020 BKN120
     FM290500 06007KT P6SM VCSH SCT012 SCT025 BKN100 PROB30
      2909/2912 SHRA BKN018 OVC070
     FM291200 05008KT P6SM VCTS BKN020CB OVC080
      TEMPO 2912/2916 TSRA
     FM291800 06010KT P6SM SCT025 BKN120=

USA.gov is the U.S. government's official web portal to all federal, state and local government web resources and services.